< < Back
Terminal Aerodrome Forecast


Current Version              Previous Versions:   1  2  3  4  5  6  7  8  9  

Terminal Aerodrome Forecast

678
FTUS42 KCHS 191100
TAFCHS
TAF
KCHS 191133Z 1912/2012 04005KT P6SM BKN250
     FM200700 04004KT P6SM -RA SCT025 BKN080=

Latest METAR

823
SAUS80 KWBC 200100 CCA
MTRCHS
METAR KCHS 200056Z 06005KT 10SM SCT110 BKN180 11/06 A3012 RMK AO2 SLP200
T01060061


USA.gov is the U.S. government's official web portal to all federal, state and local government web resources and services.